首页
METAR-TAF:

METAR-TAF

机场 :

埃尔多拉多国际机场

波哥大, 哥伦比亚

纬度: 04-43N, 经度: 074-09W, 海拔: 2547米

当前天气观测

该预报发布于26分钟前的04:00 UTC
风速2节,风向多变
温度 10°C
湿度 93%
气压 1026 hPa
能见度10公里或以上
少量云层高于1700英尺

METAR: SKBO 260400Z VRB02KT 9999 FEW017 10/09 Q1026 NOSIG RMK A3033

时间: 23:26 (04:26 UTC)

预报

该预报发布于5小时和56分钟前的22:30 UTC
预报有效从26日的 00点(UTC)到 26日的 24点(UTC)
风速2节,风向多变
能见度10公里或以上
散云层高于1500英尺
散云层高于8000英尺
短暂存在
从 26日的 06点(UTC)到 26日的 10点(UTC)
能見度: 5000
散云层高于1000英尺
多云层高于8000英尺
毛毛雨, 雨
成为
从 26日的 15点(UTC)到 26日的 17点(UTC)
风速10节,风向东南
散云层高于2000英尺
短暂存在
从 26日的 20点(UTC)到 26日的 23点(UTC)
多云层高于1700英尺
毛毛雨, 雨

TAF: SKBO 252230Z 2600/2624 VRB02KT 9999 SCT015 SCT080 TEMPO 2606/2610 5000 DZRA SCT010 BKN080 BECMG 2615/2617 14010KT SCT020 TEMPO 2620/2623 DZRA BKN017 TX20/2619Z TN11/2610Z

超过4000个机场的气象观测和天气预报(METAR&TAF报告)。

可查询的气象台以黄色和红色小点在地图上表示。

将鼠标移到小点上方,可查看气象台名称。

然后点击查看天气观测和预报。

如需切换地图:点击带黑十字的绿色按钮放大地图;点击带横线的绿色按钮缩小地图;或者点击绿色箭头查看邻近地区的地图。


METAR-TAF: